sensor_id;sensor_type;location;lat;lon;timestamp;P1;durP1;ratioP1;P2;durP2;ratioP2
21326;SDS011;10822;51.532;6.770;2023-05-14T00:01:17;7.53;;;6.43;;
21326;SDS011;10822;51.532;6.770;2023-05-14T00:03:43;7.50;;;6.80;;
21326;SDS011;10822;51.532;6.770;2023-05-14T00:06:09;8.32;;;6.68;;
21326;SDS011;10822;51.532;6.770;2023-05-14T00:08:35;7.60;;;6.57;;
21326;SDS011;10822;51.532;6.770;2023-05-14T00:11:01;10.30;;;6.88;;
21326;SDS011;10822;51.532;6.770;2023-05-14T00:13:27;8.90;;;6.53;;
21326;SDS011;10822;51.532;6.770;2023-05-14T00:15:53;7.85;;;6.28;;
21326;SDS011;10822;51.532;6.770;2023-05-14T00:18:19;8.65;;;6.75;;
21326;SDS011;10822;51.532;6.770;2023-05-14T00:20:45;8.43;;;6.25;;
21326;SDS011;10822;51.532;6.770;2023-05-14T00:23:11;9.32;;;7.00;;
21326;SDS011;10822;51.532;6.770;2023-05-14T00:25:37;7.15;;;6.45;;
21326;SDS011;10822;51.532;6.770;2023-05-14T00:28:03;7.70;;;6.65;;
21326;SDS011;10822;51.532;6.770;2023-05-14T00:30:29;7.45;;;6.75;;
21326;SDS011;10822;51.532;6.770;2023-05-14T00:32:55;7.25;;;6.40;;
21326;SDS011;10822;51.532;6.770;2023-05-14T00:35:21;10.68;;;6.50;;
21326;SDS011;10822;51.532;6.770;2023-05-14T00:37:48;10.15;;;7.40;;
21326;SDS011;10822;51.532;6.770;2023-05-14T00:40:14;9.50;;;7.45;;
21326;SDS011;10822;51.532;6.770;2023-05-14T00:42:41;9.95;;;8.15;;
21326;SDS011;10822;51.532;6.770;2023-05-14T00:45:07;8.65;;;7.72;;
21326;SDS011;10822;51.532;6.770;2023-05-14T00:47:33;9.63;;;8.13;;
21326;SDS011;10822;51.532;6.770;2023-05-14T00:50:00;8.40;;;7.30;;
21326;SDS011;10822;51.532;6.770;2023-05-14T00:52:27;9.52;;;7.18;;
21326;SDS011;10822;51.532;6.770;2023-05-14T00:54:53;8.95;;;7.50;;
21326;SDS011;10822;51.532;6.770;2023-05-14T00:57:19;8.95;;;7.38;;
21326;SDS011;10822;51.532;6.770;2023-05-14T00:59:46;9.25;;;7.40;;
21326;SDS011;10822;51.532;6.770;2023-05-14T01:02:12;9.30;;;7.88;;
21326;SDS011;10822;51.532;6.770;2023-05-14T01:04:38;9.30;;;8.07;;
21326;SDS011;10822;51.532;6.770;2023-05-14T01:09:41;11.68;;;7.00;;
21326;SDS011;10822;51.532;6.770;2023-05-14T01:14:39;9.52;;;7.60;;
21326;SDS011;10822;51.532;6.770;2023-05-14T01:17:09;10.95;;;7.97;;
21326;SDS011;10822;51.532;6.770;2023-05-14T01:19:41;9.13;;;8.10;;
21326;SDS011;10822;51.532;6.770;2023-05-14T01:22:07;8.38;;;7.47;;
21326;SDS011;10822;51.532;6.770;2023-05-14T01:24:33;8.25;;;7.45;;
21326;SDS011;10822;51.532;6.770;2023-05-14T01:29:32;10.00;;;7.43;;
21326;SDS011;10822;51.532;6.770;2023-05-14T01:31:58;9.18;;;8.27;;
21326;SDS011;10822;51.532;6.770;2023-05-14T01:34:25;9.68;;;7.78;;
21326;SDS011;10822;51.532;6.770;2023-05-14T01:36:51;8.88;;;7.97;;
21326;SDS011;10822;51.532;6.770;2023-05-14T01:39:18;8.75;;;7.85;;
21326;SDS011;10822;51.532;6.770;2023-05-14T01:41:44;10.40;;;8.07;;
21326;SDS011;10822;51.532;6.770;2023-05-14T01:44:11;10.80;;;8.00;;
21326;SDS011;10822;51.532;6.770;2023-05-14T01:46:37;9.18;;;8.18;;
21326;SDS011;10822;51.532;6.770;2023-05-14T01:49:03;11.00;;;8.27;;
21326;SDS011;10822;51.532;6.770;2023-05-14T01:51:29;10.10;;;8.38;;
21326;SDS011;10822;51.532;6.770;2023-05-14T01:53:55;8.60;;;7.63;;
21326;SDS011;10822;51.532;6.770;2023-05-14T01:56:22;9.18;;;7.93;;
21326;SDS011;10822;51.532;6.770;2023-05-14T01:58:48;9.35;;;8.43;;
21326;SDS011;10822;51.532;6.770;2023-05-14T02:01:14;9.48;;;8.23;;
21326;SDS011;10822;51.532;6.770;2023-05-14T02:03:40;9.73;;;7.97;;
21326;SDS011;10822;51.532;6.770;2023-05-14T02:06:06;8.55;;;7.65;;
21326;SDS011;10822;51.532;6.770;2023-05-14T02:08:32;12.18;;;8.60;;
21326;SDS011;10822;51.532;6.770;2023-05-14T02:10:58;14.40;;;8.27;;
21326;SDS011;10822;51.532;6.770;2023-05-14T02:13:24;11.13;;;8.48;;
21326;SDS011;10822;51.532;6.770;2023-05-14T02:15:51;11.10;;;8.73;;
21326;SDS011;10822;51.532;6.770;2023-05-14T02:18:17;9.63;;;8.63;;
21326;SDS011;10822;51.532;6.770;2023-05-14T02:20:43;13.65;;;8.63;;
21326;SDS011;10822;51.532;6.770;2023-05-14T02:23:09;10.93;;;8.57;;
21326;SDS011;10822;51.532;6.770;2023-05-14T02:25:35;10.43;;;9.32;;
21326;SDS011;10822;51.532;6.770;2023-05-14T02:28:01;13.63;;;8.93;;
21326;SDS011;10822;51.532;6.770;2023-05-14T02:30:27;11.30;;;8.98;;
21326;SDS011;10822;51.532;6.770;2023-05-14T02:32:54;9.98;;;8.70;;
21326;SDS011;10822;51.532;6.770;2023-05-14T02:35:20;9.63;;;8.43;;
21326;SDS011;10822;51.532;6.770;2023-05-14T02:37:45;9.32;;;8.38;;
21326;SDS011;10822;51.532;6.770;2023-05-14T02:40:11;10.95;;;8.85;;
21326;SDS011;10822;51.532;6.770;2023-05-14T02:42:37;9.52;;;8.30;;
21326;SDS011;10822;51.532;6.770;2023-05-14T02:45:03;9.68;;;8.70;;
21326;SDS011;10822;51.532;6.770;2023-05-14T02:47:30;9.30;;;8.32;;
21326;SDS011;10822;51.532;6.770;2023-05-14T02:49:56;10.85;;;9.18;;
21326;SDS011;10822;51.532;6.770;2023-05-14T02:52:22;12.18;;;9.18;;
21326;SDS011;10822;51.532;6.770;2023-05-14T02:54:48;10.80;;;9.25;;
21326;SDS011;10822;51.532;6.770;2023-05-14T02:57:14;10.13;;;8.70;;
21326;SDS011;10822;51.532;6.770;2023-05-14T02:59:40;10.43;;;9.02;;
21326;SDS011;10822;51.532;6.770;2023-05-14T03:02:06;9.88;;;8.70;;
21326;SDS011;10822;51.532;6.770;2023-05-14T03:04:32;9.65;;;8.65;;
21326;SDS011;10822;51.532;6.770;2023-05-14T03:06:58;14.20;;;9.75;;
21326;SDS011;10822;51.532;6.770;2023-05-14T03:09:25;11.38;;;9.05;;
21326;SDS011;10822;51.532;6.770;2023-05-14T03:11:50;11.82;;;9.35;;
21326;SDS011;10822;51.532;6.770;2023-05-14T03:14:16;9.98;;;8.98;;
21326;SDS011;10822;51.532;6.770;2023-05-14T03:16:42;13.77;;;9.93;;
21326;SDS011;10822;51.532;6.770;2023-05-14T03:19:08;11.25;;;9.70;;
21326;SDS011;10822;51.532;6.770;2023-05-14T03:21:34;10.52;;;9.43;;
21326;SDS011;10822;51.532;6.770;2023-05-14T03:24:00;10.63;;;9.52;;
21326;SDS011;10822;51.532;6.770;2023-05-14T03:26:26;12.68;;;9.90;;
21326;SDS011;10822;51.532;6.770;2023-05-14T03:28:52;12.43;;;9.80;;
21326;SDS011;10822;51.532;6.770;2023-05-14T03:31:18;11.18;;;9.57;;
21326;SDS011;10822;51.532;6.770;2023-05-14T03:33:44;11.30;;;10.05;;
21326;SDS011;10822;51.532;6.770;2023-05-14T03:36:10;10.77;;;9.68;;
21326;SDS011;10822;51.532;6.770;2023-05-14T03:38:36;10.48;;;9.48;;
21326;SDS011;10822;51.532;6.770;2023-05-14T03:41:02;10.05;;;9.05;;
21326;SDS011;10822;51.532;6.770;2023-05-14T03:43:29;10.85;;;9.45;;
21326;SDS011;10822;51.532;6.770;2023-05-14T03:45:55;10.52;;;9.38;;
21326;SDS011;10822;51.532;6.770;2023-05-14T03:48:21;10.48;;;8.95;;
21326;SDS011;10822;51.532;6.770;2023-05-14T03:50:47;11.23;;;9.45;;
21326;SDS011;10822;51.532;6.770;2023-05-14T03:53:13;13.77;;;9.52;;
21326;SDS011;10822;51.532;6.770;2023-05-14T03:55:39;12.07;;;9.80;;
21326;SDS011;10822;51.532;6.770;2023-05-14T03:58:06;13.40;;;10.40;;
21326;SDS011;10822;51.532;6.770;2023-05-14T04:00:41;12.03;;;10.73;;
21326;SDS011;10822;51.532;6.770;2023-05-14T04:03:08;10.13;;;9.13;;
21326;SDS011;10822;51.532;6.770;2023-05-14T04:05:34;11.25;;;10.07;;
21326;SDS011;10822;51.532;6.770;2023-05-14T04:08:00;11.40;;;9.63;;
21326;SDS011;10822;51.532;6.770;2023-05-14T04:10:26;11.25;;;9.95;;
21326;SDS011;10822;51.532;6.770;2023-05-14T04:12:53;11.88;;;9.90;;
21326;SDS011;10822;51.532;6.770;2023-05-14T04:15:20;14.23;;;10.10;;
21326;SDS011;10822;51.532;6.770;2023-05-14T04:17:46;11.85;;;9.70;;
21326;SDS011;10822;51.532;6.770;2023-05-14T04:20:12;10.60;;;9.57;;
21326;SDS011;10822;51.532;6.770;2023-05-14T04:22:38;12.07;;;10.32;;
21326;SDS011;10822;51.532;6.770;2023-05-14T04:25:04;12.32;;;10.75;;
21326;SDS011;10822;51.532;6.770;2023-05-14T04:27:31;11.65;;;10.13;;
21326;SDS011;10822;51.532;6.770;2023-05-14T04:29:57;11.52;;;9.73;;
21326;SDS011;10822;51.532;6.770;2023-05-14T04:32:23;12.07;;;10.55;;
21326;SDS011;10822;51.532;6.770;2023-05-14T04:34:51;11.75;;;10.55;;
21326;SDS011;10822;51.532;6.770;2023-05-14T04:37:18;11.57;;;10.27;;
21326;SDS011;10822;51.532;6.770;2023-05-14T04:39:46;11.75;;;10.55;;
21326;SDS011;10822;51.532;6.770;2023-05-14T04:42:12;12.68;;;10.20;;
21326;SDS011;10822;51.532;6.770;2023-05-14T04:44:38;12.30;;;11.00;;
21326;SDS011;10822;51.532;6.770;2023-05-14T04:47:04;12.18;;;10.25;;
21326;SDS011;10822;51.532;6.770;2023-05-14T04:49:30;11.65;;;10.45;;
21326;SDS011;10822;51.532;6.770;2023-05-14T04:51:58;12.50;;;10.15;;
21326;SDS011;10822;51.532;6.770;2023-05-14T04:54:24;12.73;;;11.07;;
21326;SDS011;10822;51.532;6.770;2023-05-14T04:56:50;11.30;;;10.05;;
21326;SDS011;10822;51.532;6.770;2023-05-14T04:59:16;11.75;;;10.55;;
21326;SDS011;10822;51.532;6.770;2023-05-14T05:01:42;12.77;;;11.32;;
21326;SDS011;10822;51.532;6.770;2023-05-14T05:04:09;12.18;;;10.85;;
21326;SDS011;10822;51.532;6.770;2023-05-14T05:06:35;13.70;;;10.73;;
21326;SDS011;10822;51.532;6.770;2023-05-14T05:09:01;12.18;;;10.65;;
21326;SDS011;10822;51.532;6.770;2023-05-14T05:11:28;12.50;;;10.70;;
21326;SDS011;10822;51.532;6.770;2023-05-14T05:13:54;13.20;;;11.35;;
21326;SDS011;10822;51.532;6.770;2023-05-14T05:16:22;13.55;;;11.10;;
21326;SDS011;10822;51.532;6.770;2023-05-14T05:18:48;12.23;;;10.90;;
21326;SDS011;10822;51.532;6.770;2023-05-14T05:21:14;11.57;;;10.38;;
21326;SDS011;10822;51.532;6.770;2023-05-14T05:23:40;12.80;;;11.32;;
21326;SDS011;10822;51.532;6.770;2023-05-14T05:26:06;14.07;;;11.05;;
21326;SDS011;10822;51.532;6.770;2023-05-14T05:28:32;12.65;;;10.68;;
21326;SDS011;10822;51.532;6.770;2023-05-14T05:30:58;12.60;;;10.77;;
21326;SDS011;10822;51.532;6.770;2023-05-14T05:33:24;13.63;;;11.00;;
21326;SDS011;10822;51.532;6.770;2023-05-14T05:35:50;15.38;;;12.00;;
21326;SDS011;10822;51.532;6.770;2023-05-14T05:38:16;18.20;;;13.65;;
21326;SDS011;10822;51.532;6.770;2023-05-14T05:40:42;17.40;;;13.95;;
21326;SDS011;10822;51.532;6.770;2023-05-14T05:43:09;13.43;;;11.70;;
21326;SDS011;10822;51.532;6.770;2023-05-14T05:45:35;12.32;;;10.95;;
21326;SDS011;10822;51.532;6.770;2023-05-14T05:48:02;12.23;;;10.45;;
21326;SDS011;10822;51.532;6.770;2023-05-14T05:50:29;12.00;;;10.27;;
21326;SDS011;10822;51.532;6.770;2023-05-14T05:52:56;13.35;;;10.73;;
21326;SDS011;10822;51.532;6.770;2023-05-14T05:55:23;15.38;;;11.23;;
21326;SDS011;10822;51.532;6.770;2023-05-14T05:57:49;11.80;;;10.60;;
21326;SDS011;10822;51.532;6.770;2023-05-14T06:00:16;12.15;;;10.85;;
21326;SDS011;10822;51.532;6.770;2023-05-14T06:02:43;12.90;;;10.05;;
21326;SDS011;10822;51.532;6.770;2023-05-14T06:05:09;11.18;;;10.07;;
21326;SDS011;10822;51.532;6.770;2023-05-14T06:07:35;10.63;;;9.52;;
21326;SDS011;10822;51.532;6.770;2023-05-14T06:10:01;10.52;;;9.00;;
21326;SDS011;10822;51.532;6.770;2023-05-14T06:12:27;10.98;;;9.73;;
21326;SDS011;10822;51.532;6.770;2023-05-14T06:14:53;11.70;;;9.38;;
21326;SDS011;10822;51.532;6.770;2023-05-14T06:17:21;10.50;;;9.40;;
21326;SDS011;10822;51.532;6.770;2023-05-14T06:19:47;10.32;;;8.77;;
21326;SDS011;10822;51.532;6.770;2023-05-14T06:22:13;10.18;;;8.52;;
21326;SDS011;10822;51.532;6.770;2023-05-14T06:24:39;11.23;;;9.13;;
21326;SDS011;10822;51.532;6.770;2023-05-14T06:27:05;11.40;;;9.25;;
21326;SDS011;10822;51.532;6.770;2023-05-14T06:29:31;10.07;;;9.00;;
21326;SDS011;10822;51.532;6.770;2023-05-14T06:32:00;10.68;;;9.52;;
21326;SDS011;10822;51.532;6.770;2023-05-14T06:34:29;11.38;;;8.90;;
21326;SDS011;10822;51.532;6.770;2023-05-14T06:36:55;10.13;;;8.95;;
21326;SDS011;10822;51.532;6.770;2023-05-14T06:39:21;10.60;;;9.50;;
21326;SDS011;10822;51.532;6.770;2023-05-14T06:41:48;10.07;;;8.90;;
21326;SDS011;10822;51.532;6.770;2023-05-14T06:44:14;10.93;;;9.45;;
21326;SDS011;10822;51.532;6.770;2023-05-14T06:46:41;11.30;;;10.10;;
21326;SDS011;10822;51.532;6.770;2023-05-14T06:49:08;12.45;;;9.63;;
21326;SDS011;10822;51.532;6.770;2023-05-14T06:51:34;52.17;;;13.13;;
21326;SDS011;10822;51.532;6.770;2023-05-14T06:54:02;11.60;;;10.40;;
21326;SDS011;10822;51.532;6.770;2023-05-14T06:56:29;13.25;;;11.23;;
21326;SDS011;10822;51.532;6.770;2023-05-14T06:58:55;11.45;;;10.35;;
21326;SDS011;10822;51.532;6.770;2023-05-14T07:01:21;12.75;;;11.10;;
21326;SDS011;10822;51.532;6.770;2023-05-14T07:03:47;12.05;;;10.85;;
21326;SDS011;10822;51.532;6.770;2023-05-14T07:06:13;12.95;;;11.40;;
21326;SDS011;10822;51.532;6.770;2023-05-14T07:08:39;14.35;;;11.30;;
21326;SDS011;10822;51.532;6.770;2023-05-14T07:11:06;13.45;;;10.98;;
21326;SDS011;10822;51.532;6.770;2023-05-14T07:13:34;13.05;;;11.73;;
21326;SDS011;10822;51.532;6.770;2023-05-14T07:16:00;13.23;;;11.27;;
21326;SDS011;10822;51.532;6.770;2023-05-14T07:18:28;13.07;;;11.07;;
21326;SDS011;10822;51.532;6.770;2023-05-14T07:20:54;12.45;;;11.25;;
21326;SDS011;10822;51.532;6.770;2023-05-14T07:23:20;12.27;;;11.00;;
21326;SDS011;10822;51.532;6.770;2023-05-14T07:25:46;12.77;;;11.27;;
21326;SDS011;10822;51.532;6.770;2023-05-14T07:28:12;13.30;;;11.95;;
21326;SDS011;10822;51.532;6.770;2023-05-14T07:30:38;12.57;;;11.00;;
21326;SDS011;10822;51.532;6.770;2023-05-14T07:33:04;13.00;;;11.55;;
21326;SDS011;10822;51.532;6.770;2023-05-14T07:35:30;14.10;;;10.98;;
21326;SDS011;10822;51.532;6.770;2023-05-14T07:37:56;12.68;;;11.38;;
21326;SDS011;10822;51.532;6.770;2023-05-14T07:40:22;12.55;;;10.65;;
21326;SDS011;10822;51.532;6.770;2023-05-14T07:42:49;13.43;;;11.82;;
21326;SDS011;10822;51.532;6.770;2023-05-14T07:45:15;13.38;;;12.07;;
21326;SDS011;10822;51.532;6.770;2023-05-14T07:47:41;12.55;;;11.27;;
21326;SDS011;10822;51.532;6.770;2023-05-14T07:50:07;12.27;;;10.98;;
21326;SDS011;10822;51.532;6.770;2023-05-14T07:52:36;11.73;;;10.38;;
21326;SDS011;10822;51.532;6.770;2023-05-14T07:55:02;11.20;;;10.02;;
21326;SDS011;10822;51.532;6.770;2023-05-14T07:57:28;11.32;;;10.15;;
21326;SDS011;10822;51.532;6.770;2023-05-14T07:59:55;10.95;;;9.80;;
21326;SDS011;10822;51.532;6.770;2023-05-14T08:02:21;10.63;;;9.40;;
21326;SDS011;10822;51.532;6.770;2023-05-14T08:04:47;13.90;;;10.27;;
21326;SDS011;10822;51.532;6.770;2023-05-14T08:07:13;10.68;;;9.60;;
21326;SDS011;10822;51.532;6.770;2023-05-14T08:09:39;11.02;;;9.68;;
21326;SDS011;10822;51.532;6.770;2023-05-14T08:12:05;11.15;;;9.38;;
21326;SDS011;10822;51.532;6.770;2023-05-14T08:14:32;10.65;;;9.40;;
21326;SDS011;10822;51.532;6.770;2023-05-14T08:16:58;10.43;;;8.98;;
21326;SDS011;10822;51.532;6.770;2023-05-14T08:19:24;10.93;;;8.57;;
21326;SDS011;10822;51.532;6.770;2023-05-14T08:21:51;9.75;;;8.75;;
21326;SDS011;10822;51.532;6.770;2023-05-14T08:24:17;9.85;;;8.38;;
21326;SDS011;10822;51.532;6.770;2023-05-14T08:26:43;9.70;;;8.73;;
21326;SDS011;10822;51.532;6.770;2023-05-14T08:29:09;9.02;;;8.10;;
21326;SDS011;10822;51.532;6.770;2023-05-14T08:31:35;9.57;;;8.15;;
21326;SDS011;10822;51.532;6.770;2023-05-14T08:34:01;9.38;;;7.68;;
21326;SDS011;10822;51.532;6.770;2023-05-14T08:36:27;9.35;;;7.70;;
21326;SDS011;10822;51.532;6.770;2023-05-14T08:38:55;8.30;;;7.35;;
21326;SDS011;10822;51.532;6.770;2023-05-14T08:41:21;6.18;;;5.53;;
21326;SDS011;10822;51.532;6.770;2023-05-14T08:44:00;6.05;;;5.43;;
21326;SDS011;10822;51.532;6.770;2023-05-14T08:46:29;9.93;;;5.40;;
21326;SDS011;10822;51.532;6.770;2023-05-14T08:48:59;5.80;;;4.40;;
21326;SDS011;10822;51.532;6.770;2023-05-14T08:51:28;7.28;;;4.63;;
21326;SDS011;10822;51.532;6.770;2023-05-14T08:53:54;6.10;;;4.80;;
21326;SDS011;10822;51.532;6.770;2023-05-14T08:56:20;6.95;;;5.40;;
21326;SDS011;10822;51.532;6.770;2023-05-14T08:58:48;6.50;;;5.45;;
21326;SDS011;10822;51.532;6.770;2023-05-14T09:01:14;7.22;;;6.32;;
21326;SDS011;10822;51.532;6.770;2023-05-14T09:03:40;5.28;;;4.78;;
21326;SDS011;10822;51.532;6.770;2023-05-14T09:06:07;3.80;;;3.40;;
21326;SDS011;10822;51.532;6.770;2023-05-14T09:08:33;4.35;;;3.63;;
21326;SDS011;10822;51.532;6.770;2023-05-14T09:11:00;4.57;;;3.60;;
21326;SDS011;10822;51.532;6.770;2023-05-14T09:13:26;5.03;;;3.20;;
21326;SDS011;10822;51.532;6.770;2023-05-14T09:15:52;4.20;;;3.80;;
21326;SDS011;10822;51.532;6.770;2023-05-14T09:18:20;7.18;;;3.80;;
21326;SDS011;10822;51.532;6.770;2023-05-14T09:20:46;3.47;;;3.13;;
21326;SDS011;10822;51.532;6.770;2023-05-14T09:23:12;3.97;;;3.10;;
21326;SDS011;10822;51.532;6.770;2023-05-14T09:25:38;6.15;;;3.47;;
21326;SDS011;10822;51.532;6.770;2023-05-14T09:28:07;6.07;;;3.13;;
21326;SDS011;10822;51.532;6.770;2023-05-14T09:30:33;4.78;;;3.13;;
21326;SDS011;10822;51.532;6.770;2023-05-14T09:33:01;4.35;;;3.10;;
21326;SDS011;10822;51.532;6.770;2023-05-14T09:35:27;3.53;;;2.90;;
21326;SDS011;10822;51.532;6.770;2023-05-14T09:37:54;4.90;;;2.88;;
21326;SDS011;10822;51.532;6.770;2023-05-14T09:40:21;4.22;;;3.00;;
21326;SDS011;10822;51.532;6.770;2023-05-14T09:42:47;3.78;;;3.00;;
21326;SDS011;10822;51.532;6.770;2023-05-14T09:45:15;5.75;;;2.70;;
21326;SDS011;10822;51.532;6.770;2023-05-14T09:47:43;4.13;;;3.13;;
21326;SDS011;10822;51.532;6.770;2023-05-14T09:50:09;4.72;;;3.60;;
21326;SDS011;10822;51.532;6.770;2023-05-14T09:52:35;5.45;;;3.10;;
21326;SDS011;10822;51.532;6.770;2023-05-14T09:55:03;4.80;;;2.80;;
21326;SDS011;10822;51.532;6.770;2023-05-14T09:57:29;3.90;;;3.05;;
21326;SDS011;10822;51.532;6.770;2023-05-14T09:59:55;2.58;;;2.20;;
21326;SDS011;10822;51.532;6.770;2023-05-14T10:02:39;3.40;;;2.25;;
21326;SDS011;10822;51.532;6.770;2023-05-14T10:05:07;3.10;;;2.40;;
21326;SDS011;10822;51.532;6.770;2023-05-14T10:07:41;3.88;;;2.60;;
21326;SDS011;10822;51.532;6.770;2023-05-14T10:10:09;2.67;;;2.22;;
21326;SDS011;10822;51.532;6.770;2023-05-14T10:12:38;2.78;;;2.33;;
21326;SDS011;10822;51.532;6.770;2023-05-14T10:15:11;4.88;;;2.72;;
21326;SDS011;10822;51.532;6.770;2023-05-14T10:17:42;4.78;;;3.33;;
21326;SDS011;10822;51.532;6.770;2023-05-14T10:20:09;5.78;;;2.15;;
21326;SDS011;10822;51.532;6.770;2023-05-14T10:22:39;3.00;;;2.10;;
21326;SDS011;10822;51.532;6.770;2023-05-14T10:25:05;3.47;;;2.20;;
21326;SDS011;10822;51.532;6.770;2023-05-14T10:27:32;2.63;;;2.00;;
21326;SDS011;10822;51.532;6.770;2023-05-14T10:29:58;3.78;;;2.30;;
21326;SDS011;10822;51.532;6.770;2023-05-14T10:32:24;3.17;;;2.60;;
21326;SDS011;10822;51.532;6.770;2023-05-14T10:34:53;3.38;;;2.10;;
21326;SDS011;10822;51.532;6.770;2023-05-14T10:37:20;2.47;;;1.92;;
21326;SDS011;10822;51.532;6.770;2023-05-14T10:39:48;3.22;;;2.13;;
21326;SDS011;10822;51.532;6.770;2023-05-14T10:42:27;2.80;;;2.25;;
21326;SDS011;10822;51.532;6.770;2023-05-14T10:44:55;4.60;;;2.10;;
21326;SDS011;10822;51.532;6.770;2023-05-14T10:47:26;3.38;;;2.05;;
21326;SDS011;10822;51.532;6.770;2023-05-14T10:49:54;2.90;;;1.80;;
21326;SDS011;10822;51.532;6.770;2023-05-14T10:52:23;3.60;;;2.13;;
21326;SDS011;10822;51.532;6.770;2023-05-14T10:54:53;2.33;;;1.80;;
21326;SDS011;10822;51.532;6.770;2023-05-14T10:57:21;3.65;;;2.38;;
21326;SDS011;10822;51.532;6.770;2023-05-14T10:59:48;4.85;;;2.00;;
21326;SDS011;10822;51.532;6.770;2023-05-14T11:02:27;2.65;;;2.10;;
21326;SDS011;10822;51.532;6.770;2023-05-14T11:04:57;2.42;;;2.00;;
21326;SDS011;10822;51.532;6.770;2023-05-14T11:07:26;3.38;;;2.15;;
21326;SDS011;10822;51.532;6.770;2023-05-14T11:09:52;5.28;;;2.17;;
21326;SDS011;10822;51.532;6.770;2023-05-14T11:12:22;3.78;;;2.10;;
21326;SDS011;10822;51.532;6.770;2023-05-14T11:14:48;3.45;;;2.58;;
21326;SDS011;10822;51.532;6.770;2023-05-14T11:17:15;2.42;;;2.10;;
21326;SDS011;10822;51.532;6.770;2023-05-14T11:19:42;2.78;;;2.20;;
21326;SDS011;10822;51.532;6.770;2023-05-14T11:22:08;3.08;;;2.20;;
21326;SDS011;10822;51.532;6.770;2023-05-14T11:24:37;3.05;;;1.90;;
21326;SDS011;10822;51.532;6.770;2023-05-14T11:27:04;2.78;;;2.03;;
21326;SDS011;10822;51.532;6.770;2023-05-14T11:29:32;3.70;;;2.42;;
21326;SDS011;10822;51.532;6.770;2023-05-14T11:31:58;3.08;;;2.20;;
21326;SDS011;10822;51.532;6.770;2023-05-14T11:34:24;2.42;;;1.90;;
21326;SDS011;10822;51.532;6.770;2023-05-14T11:36:50;3.05;;;2.25;;
21326;SDS011;10822;51.532;6.770;2023-05-14T11:39:16;2.45;;;2.13;;
21326;SDS011;10822;51.532;6.770;2023-05-14T11:41:43;3.33;;;2.08;;
21326;SDS011;10822;51.532;6.770;2023-05-14T11:44:13;3.75;;;2.10;;
21326;SDS011;10822;51.532;6.770;2023-05-14T11:46:39;6.70;;;2.30;;
21326;SDS011;10822;51.532;6.770;2023-05-14T11:49:05;3.45;;;2.22;;
21326;SDS011;10822;51.532;6.770;2023-05-14T11:51:32;4.38;;;2.40;;
21326;SDS011;10822;51.532;6.770;2023-05-14T11:53:58;3.03;;;2.25;;
21326;SDS011;10822;51.532;6.770;2023-05-14T11:56:27;2.53;;;1.88;;
21326;SDS011;10822;51.532;6.770;2023-05-14T11:58:58;3.47;;;2.03;;
21326;SDS011;10822;51.532;6.770;2023-05-14T12:01:24;2.45;;;2.13;;
21326;SDS011;10822;51.532;6.770;2023-05-14T12:03:52;2.53;;;2.33;;
21326;SDS011;10822;51.532;6.770;2023-05-14T12:06:18;2.40;;;2.20;;
21326;SDS011;10822;51.532;6.770;2023-05-14T12:08:46;2.92;;;2.55;;
21326;SDS011;10822;51.532;6.770;2023-05-14T12:11:13;2.72;;;2.25;;
21326;SDS011;10822;51.532;6.770;2023-05-14T12:13:39;2.50;;;2.17;;
21326;SDS011;10822;51.532;6.770;2023-05-14T12:16:05;3.75;;;2.08;;
21326;SDS011;10822;51.532;6.770;2023-05-14T12:18:32;2.88;;;1.90;;
21326;SDS011;10822;51.532;6.770;2023-05-14T12:21:01;3.15;;;1.88;;
21326;SDS011;10822;51.532;6.770;2023-05-14T12:23:30;3.28;;;2.17;;
21326;SDS011;10822;51.532;6.770;2023-05-14T12:26:00;4.18;;;2.15;;
21326;SDS011;10822;51.532;6.770;2023-05-14T12:28:33;2.00;;;1.80;;
21326;SDS011;10822;51.532;6.770;2023-05-14T12:31:00;3.33;;;2.20;;
21326;SDS011;10822;51.532;6.770;2023-05-14T12:33:26;2.45;;;2.17;;
21326;SDS011;10822;51.532;6.770;2023-05-14T12:35:52;2.92;;;2.30;;
21326;SDS011;10822;51.532;6.770;2023-05-14T12:38:22;4.13;;;2.20;;
21326;SDS011;10822;51.532;6.770;2023-05-14T12:40:49;2.80;;;2.10;;
21326;SDS011;10822;51.532;6.770;2023-05-14T12:43:14;2.28;;;1.90;;
21326;SDS011;10822;51.532;6.770;2023-05-14T12:45:40;2.50;;;2.17;;
21326;SDS011;10822;51.532;6.770;2023-05-14T12:48:07;1.95;;;1.83;;
21326;SDS011;10822;51.532;6.770;2023-05-14T12:50:33;3.53;;;2.40;;
21326;SDS011;10822;51.532;6.770;2023-05-14T12:52:59;3.30;;;2.30;;
21326;SDS011;10822;51.532;6.770;2023-05-14T12:55:25;2.25;;;1.88;;
21326;SDS011;10822;51.532;6.770;2023-05-14T12:57:51;3.55;;;2.25;;
21326;SDS011;10822;51.532;6.770;2023-05-14T13:00:17;2.53;;;2.20;;
21326;SDS011;10822;51.532;6.770;2023-05-14T13:02:43;3.78;;;2.15;;
21326;SDS011;10822;51.532;6.770;2023-05-14T13:05:10;3.08;;;2.33;;
21326;SDS011;10822;51.532;6.770;2023-05-14T13:07:36;2.42;;;2.22;;
21326;SDS011;10822;51.532;6.770;2023-05-14T13:10:02;3.55;;;2.13;;
21326;SDS011;10822;51.532;6.770;2023-05-14T13:12:29;2.67;;;1.92;;
21326;SDS011;10822;51.532;6.770;2023-05-14T13:14:56;2.72;;;2.03;;
21326;SDS011;10822;51.532;6.770;2023-05-14T13:17:22;4.65;;;2.20;;
21326;SDS011;10822;51.532;6.770;2023-05-14T13:19:48;2.35;;;2.00;;
21326;SDS011;10822;51.532;6.770;2023-05-14T13:22:14;3.80;;;2.20;;
21326;SDS011;10822;51.532;6.770;2023-05-14T13:24:42;3.17;;;1.83;;
21326;SDS011;10822;51.532;6.770;2023-05-14T13:27:08;2.50;;;2.05;;
21326;SDS011;10822;51.532;6.770;2023-05-14T13:29:34;2.28;;;1.85;;
21326;SDS011;10822;51.532;6.770;2023-05-14T13:32:01;3.72;;;1.85;;
21326;SDS011;10822;51.532;6.770;2023-05-14T13:34:27;2.72;;;1.80;;
21326;SDS011;10822;51.532;6.770;2023-05-14T13:36:55;3.47;;;1.80;;
21326;SDS011;10822;51.532;6.770;2023-05-14T13:39:21;2.10;;;1.90;;
21326;SDS011;10822;51.532;6.770;2023-05-14T13:41:50;2.10;;;1.90;;
21326;SDS011;10822;51.532;6.770;2023-05-14T13:44:16;4.28;;;2.25;;
21326;SDS011;10822;51.532;6.770;2023-05-14T13:46:42;2.10;;;1.90;;
21326;SDS011;10822;51.532;6.770;2023-05-14T13:49:08;2.13;;;1.80;;
21326;SDS011;10822;51.532;6.770;2023-05-14T13:51:35;2.55;;;2.00;;
21326;SDS011;10822;51.532;6.770;2023-05-14T13:54:02;2.33;;;2.13;;
21326;SDS011;10822;51.532;6.770;2023-05-14T13:56:29;2.47;;;2.20;;
21326;SDS011;10822;51.532;6.770;2023-05-14T13:58:55;3.03;;;2.20;;
21326;SDS011;10822;51.532;6.770;2023-05-14T14:01:21;5.40;;;2.28;;
21326;SDS011;10822;51.532;6.770;2023-05-14T14:03:47;2.53;;;2.13;;
21326;SDS011;10822;51.532;6.770;2023-05-14T14:06:13;2.90;;;1.90;;
21326;SDS011;10822;51.532;6.770;2023-05-14T14:08:39;2.38;;;2.00;;
21326;SDS011;10822;51.532;6.770;2023-05-14T14:11:05;2.65;;;1.80;;
21326;SDS011;10822;51.532;6.770;2023-05-14T14:13:31;2.92;;;1.70;;
21326;SDS011;10822;51.532;6.770;2023-05-14T14:15:57;3.28;;;2.22;;
21326;SDS011;10822;51.532;6.770;2023-05-14T14:18:23;2.10;;;1.85;;
21326;SDS011;10822;51.532;6.770;2023-05-14T14:20:49;5.03;;;2.00;;
21326;SDS011;10822;51.532;6.770;2023-05-14T14:23:16;3.28;;;2.28;;
21326;SDS011;10822;51.532;6.770;2023-05-14T14:25:42;2.80;;;2.05;;
21326;SDS011;10822;51.532;6.770;2023-05-14T14:28:08;2.42;;;2.10;;
21326;SDS011;10822;51.532;6.770;2023-05-14T14:30:34;2.10;;;1.90;;
21326;SDS011;10822;51.532;6.770;2023-05-14T14:33:02;2.38;;;1.80;;
21326;SDS011;10822;51.532;6.770;2023-05-14T14:35:28;3.60;;;2.20;;
21326;SDS011;10822;51.532;6.770;2023-05-14T14:37:54;2.65;;;1.80;;
21326;SDS011;10822;51.532;6.770;2023-05-14T14:40:20;4.25;;;2.20;;
21326;SDS011;10822;51.532;6.770;2023-05-14T14:42:47;4.40;;;2.20;;